Time;durP1;ratioP1;P1;durP2;ratioP2;P2;SDS_P1;SDS_P2;PMS_P1;PMS_P2;Temp;Humidity;BMP_temperature;BMP_pressure;BME280_temperature;BME280_humidity;BME280_pressure;Samples;Min_cycle;Max_cycle;Signal;HPM_P1;HPM_P2
2022/07/12 00:01:51;;;;;;;6.43;4.13;;;16.20;99.90;;;;;;5073490;28;20591;-41
2022/07/12 00:04:16;;;;;;;5.28;4.43;;;16.20;99.90;;;;;;5078249;28;20049;-41
2022/07/12 00:06:42;;;;;;;4.85;4.28;;;16.20;99.90;;;;;;5058918;28;20037;-42
2022/07/12 00:09:08;;;;;;;4.40;4.00;;;16.20;99.90;;;;;;5072318;28;20051;-41
2022/07/12 00:11:35;;;;;;;4.60;3.83;;;16.20;99.90;;;;;;5074186;28;20041;-41
2022/07/12 00:14:01;;;;;;;4.63;4.22;;;16.20;99.90;;;;;;5092229;28;20054;-41
2022/07/12 00:16:27;;;;;;;4.75;3.92;;;16.20;99.90;;;;;;5062283;28;20059;-42
2022/07/12 00:18:53;;;;;;;5.65;4.00;;;16.10;99.90;;;;;;5067683;28;20048;-41
2022/07/12 00:21:19;;;;;;;4.95;4.00;;;16.20;99.90;;;;;;5072828;28;20167;-41
2022/07/12 00:23:46;;;;;;;4.80;4.20;;;16.10;99.90;;;;;;5066425;28;20482;-41
2022/07/12 00:26:12;;;;;;;5.68;4.53;;;16.10;99.90;;;;;;5059972;28;20046;-42
2022/07/12 00:28:37;;;;;;;4.82;4.20;;;16.10;99.90;;;;;;5064322;28;20087;-41
2022/07/12 00:31:03;;;;;;;5.53;4.93;;;16.10;99.90;;;;;;5072415;28;20072;-41
2022/07/12 00:33:29;;;;;;;5.75;5.00;;;16.10;99.90;;;;;;5054168;28;20058;-41
2022/07/12 00:35:55;;;;;;;5.93;4.65;;;16.10;99.90;;;;;;5088021;28;20048;-41
2022/07/12 00:38:21;;;;;;;5.22;4.22;;;16.10;99.90;;;;;;5060450;28;20519;-41
2022/07/12 00:40:47;;;;;;;5.55;4.90;;;16.10;99.90;;;;;;5070041;28;20052;-41
2022/07/12 00:43:13;;;;;;;5.82;4.68;;;16.00;99.90;;;;;;5080216;28;20078;-41
2022/07/12 00:45:38;;;;;;;5.13;4.63;;;16.00;99.90;;;;;;5078464;28;20045;-41
2022/07/12 00:48:05;;;;;;;6.70;4.30;;;16.00;99.90;;;;;;5062917;28;20046;-41
2022/07/12 00:50:31;;;;;;;7.15;4.70;;;16.00;99.90;;;;;;5092634;28;20039;-41
2022/07/12 00:52:57;;;;;;;4.90;3.97;;;16.00;99.90;;;;;;5071504;28;20032;-41
2022/07/12 00:55:24;;;;;;;5.78;4.35;;;15.90;99.90;;;;;;5071066;28;20055;-41
2022/07/12 00:57:51;;;;;;;4.88;4.35;;;16.00;99.90;;;;;;5076112;28;20559;-41
2022/07/12 01:00:21;;;;;;;5.30;4.40;;;15.90;99.90;;;;;;5079284;28;20044;-42
2022/07/12 01:02:47;;;;;;;5.18;4.00;;;16.00;99.90;;;;;;5071476;28;20123;-41
2022/07/12 01:05:13;;;;;;;6.32;4.20;;;16.00;99.90;;;;;;5070018;28;20132;-41
2022/07/12 01:07:40;;;;;;;7.70;4.28;;;16.00;99.90;;;;;;5064571;28;20044;-41
2022/07/12 01:10:07;;;;;;;7.65;4.38;;;15.90;99.90;;;;;;5076474;28;20146;-41
2022/07/12 01:12:33;;;;;;;5.97;4.22;;;16.00;99.90;;;;;;5069588;28;20041;-41
2022/07/12 01:14:59;;;;;;;4.95;4.45;;;16.00;99.90;;;;;;5072765;28;20395;-41
2022/07/12 01:17:26;;;;;;;6.57;4.30;;;16.00;99.90;;;;;;5055565;28;20036;-41
2022/07/12 01:19:55;;;;;;;4.85;4.00;;;16.00;99.90;;;;;;5088004;28;20051;-41
2022/07/12 01:22:27;;;;;;;5.10;4.22;;;16.00;99.90;;;;;;5091162;28;20559;-42
2022/07/12 01:24:53;;;;;;;4.72;4.22;;;16.00;99.90;;;;;;5067306;28;20134;-41
2022/07/12 01:27:19;;;;;;;5.40;4.30;;;15.90;99.90;;;;;;5055497;28;20098;-41
2022/07/12 01:29:44;;;;;;;4.93;3.83;;;15.90;99.90;;;;;;5070941;28;20045;-41
2022/07/12 01:32:26;;;;;;;6.25;3.78;;;15.90;99.90;;;;;;5071148;28;20125;-41
2022/07/12 01:34:53;;;;;;;;;;;15.90;99.90;;;;;;5059408;28;20439;-42
2022/07/12 01:37:20;;;;;;;4.65;4.05;;;15.90;99.90;;;;;;5055982;28;20079;-41
2022/07/12 01:39:47;;;;;;;5.18;3.83;;;15.90;99.90;;;;;;5086233;28;20343;-41
2022/07/12 01:42:13;;;;;;;5.20;3.90;;;15.90;99.90;;;;;;5079012;28;20488;-41
2022/07/12 01:44:39;;;;;;;5.60;4.35;;;15.90;99.90;;;;;;5086408;28;20041;-41
2022/07/12 01:47:05;;;;;;;4.70;4.22;;;15.90;99.90;;;;;;5055090;28;20048;-42
2022/07/12 01:49:30;;;;;;;6.18;3.78;;;15.90;99.90;;;;;;5090033;28;20044;-41
2022/07/12 01:51:58;;;;;;;4.05;3.60;;;15.90;99.90;;;;;;5085096;28;20041;-41
2022/07/12 01:54:25;;;;;;;5.97;4.32;;;15.90;99.90;;;;;;5069984;28;20051;-41
2022/07/12 01:56:52;;;;;;;5.07;4.35;;;15.80;99.90;;;;;;5055613;28;20044;-41
2022/07/12 01:59:18;;;;;;;8.93;4.53;;;15.90;99.90;;;;;;5066701;28;20040;-41
2022/07/12 02:01:45;;;;;;;5.97;4.28;;;15.80;99.90;;;;;;5062605;28;20133;-41
2022/07/12 02:04:10;;;;;;;5.25;4.38;;;15.80;99.90;;;;;;5069933;28;20048;-41
2022/07/12 02:06:38;;;;;;;4.32;3.80;;;15.80;99.90;;;;;;5057118;28;20086;-42
2022/07/12 02:09:04;;;;;;;4.28;3.88;;;15.80;99.90;;;;;;5055235;28;20074;-41
2022/07/12 02:11:30;;;;;;;4.10;3.65;;;15.80;99.90;;;;;;5070956;28;20052;-41
2022/07/12 02:13:56;;;;;;;5.03;4.10;;;15.80;99.90;;;;;;5069879;28;20106;-41
2022/07/12 02:16:22;;;;;;;4.85;4.25;;;15.80;99.90;;;;;;5072499;28;20468;-41
2022/07/12 02:18:48;;;;;;;5.00;4.50;;;15.80;99.90;;;;;;5086783;28;20040;-42
2022/07/12 02:21:13;;;;;;;5.47;4.00;;;15.80;99.90;;;;;;5090817;28;20044;-41
2022/07/12 02:23:39;;;;;;;6.78;4.10;;;15.80;99.90;;;;;;5081083;28;20079;-41
2022/07/12 02:26:05;;;;;;;4.57;4.18;;;15.70;99.90;;;;;;5061692;28;20047;-41
2022/07/12 02:28:31;;;;;;;4.80;4.13;;;15.70;99.90;;;;;;5057585;28;20068;-41
2022/07/12 02:30:57;;;;;;;4.68;4.07;;;15.70;99.90;;;;;;5070167;28;20139;-41
2022/07/12 02:33:23;;;;;;;5.97;4.30;;;15.60;99.90;;;;;;5069796;28;20040;-41
2022/07/12 02:35:49;;;;;;;6.80;4.28;;;15.60;99.90;;;;;;5070330;28;20062;-41
2022/07/12 02:38:14;;;;;;;4.80;4.38;;;15.60;99.90;;;;;;5056095;28;20044;-41
2022/07/12 02:40:55;;;;;;;5.63;4.68;;;15.60;99.90;;;;;;5085342;28;20052;-41
2022/07/12 02:43:26;;;;;;;7.07;4.75;;;15.60;99.90;;;;;;5080529;28;20081;-41
2022/07/12 02:45:53;;;;;;;;;;;15.60;99.90;;;;;;5075239;28;20041;-41
2022/07/12 02:48:19;;;;;;;5.68;4.60;;;15.60;99.90;;;;;;5054129;28;19920;-42
2022/07/12 02:50:45;;;;;;;6.50;5.10;;;15.60;99.90;;;;;;5070276;28;20044;-41
2022/07/12 02:53:11;;;;;;;5.80;4.63;;;15.50;99.90;;;;;;5078434;28;20051;-41
2022/07/12 02:55:38;;;;;;;7.50;5.03;;;15.50;99.90;;;;;;5090206;28;20036;-41
2022/07/12 02:58:05;;;;;;;5.95;5.35;;;15.50;99.90;;;;;;5074223;28;20051;-42
2022/07/12 03:00:31;;;;;;;6.30;5.45;;;15.50;99.90;;;;;;5063562;28;20063;-42
2022/07/12 03:02:57;;;;;;;6.85;5.35;;;15.40;99.90;;;;;;5069829;28;20078;-41
2022/07/12 03:05:23;;;;;;;6.18;5.50;;;15.40;99.90;;;;;;5069683;28;20036;-41
2022/07/12 03:07:49;;;;;;;9.18;5.30;;;15.40;99.90;;;;;;5064230;28;20036;-41
2022/07/12 03:10:15;;;;;;;5.88;5.28;;;15.50;99.90;;;;;;5075348;28;20051;-41
2022/07/12 03:12:40;;;;;;;6.80;5.55;;;15.40;99.90;;;;;;5073910;28;20128;-41
2022/07/12 03:15:07;;;;;;;6.10;5.50;;;15.40;99.90;;;;;;5075791;28;20131;-41
2022/07/12 03:17:33;;;;;;;6.10;5.47;;;15.40;99.90;;;;;;5077883;28;20490;-41
2022/07/12 03:19:59;;;;;;;6.68;5.97;;;15.40;99.90;;;;;;5094463;28;20043;-41
2022/07/12 03:22:24;;;;;;;7.25;6.03;;;15.40;99.90;;;;;;5093409;28;20036;-41
2022/07/12 03:24:51;;;;;;;7.10;6.40;;;15.40;99.90;;;;;;5071925;28;20040;-41
2022/07/12 03:27:17;;;;;;;7.63;6.07;;;15.50;99.90;;;;;;5058070;28;20056;-42
2022/07/12 03:29:43;;;;;;;9.75;6.13;;;15.40;99.90;;;;;;5073492;28;20051;-42
2022/07/12 03:32:08;;;;;;;8.32;5.97;;;15.40;99.90;;;;;;5073086;28;20410;-43
2022/07/12 03:34:34;;;;;;;7.50;6.70;;;15.40;99.90;;;;;;5072582;28;20113;-41
2022/07/12 03:37:00;;;;;;;8.32;6.35;;;15.40;99.90;;;;;;5058293;28;20087;-41
2022/07/12 03:39:26;;;;;;;9.25;6.10;;;15.40;99.90;;;;;;5076160;28;20051;-41
2022/07/12 03:41:51;;;;;;;8.35;6.68;;;15.40;99.90;;;;;;5084895;28;20052;-41
2022/07/12 03:44:17;;;;;;;8.30;6.63;;;15.40;99.90;;;;;;5086689;28;20071;-41
2022/07/12 03:46:43;;;;;;;11.43;6.45;;;15.40;99.90;;;;;;5058059;28;20047;-42
2022/07/12 03:49:08;;;;;;;17.45;7.05;;;15.40;99.90;;;;;;5081972;28;20048;-41
2022/07/12 03:51:34;;;;;;;21.25;6.72;;;15.40;99.90;;;;;;5073613;28;20044;-41
2022/07/12 03:54:00;;;;;;;7.85;6.72;;;15.40;99.90;;;;;;5072134;28;20418;-42
2022/07/12 03:59:10;;;;;;;12.60;6.95;;;15.40;99.90;;;;;;5075634;28;20051;-41
2022/07/12 04:01:35;;;;;;;9.52;7.07;;;15.30;99.90;;;;;;5081093;28;20064;-41
2022/07/12 04:04:02;;;;;;;10.20;6.78;;;15.40;99.90;;;;;;5072590;28;20076;-41
2022/07/12 04:06:28;;;;;;;7.72;6.63;;;15.40;99.90;;;;;;5060270;28;20067;-41
2022/07/12 04:08:54;;;;;;;7.35;6.65;;;15.40;99.90;;;;;;5088376;28;20044;-41
2022/07/12 04:11:19;;;;;;;9.25;6.75;;;15.40;99.90;;;;;;5088756;28;20104;-42
2022/07/12 04:13:45;;;;;;;15.93;6.97;;;15.40;99.90;;;;;;5082336;28;20045;-41
2022/07/12 04:16:12;;;;;;;7.45;6.50;;;15.40;99.90;;;;;;5069517;28;20186;-42
2022/07/12 04:18:38;;;;;;;6.55;5.90;;;15.30;99.90;;;;;;5073747;28;20040;-41
2022/07/12 04:21:04;;;;;;;8.27;6.10;;;15.30;99.90;;;;;;5082195;28;20037;-41
2022/07/12 04:23:29;;;;;;;13.73;6.35;;;15.30;99.90;;;;;;5076700;28;20040;-42
2022/07/12 04:25:55;;;;;;;7.75;6.15;;;15.30;99.90;;;;;;5058542;28;20542;-41
2022/07/12 04:28:21;;;;;;;7.43;5.82;;;15.30;99.90;;;;;;5056593;28;20044;-41
2022/07/12 04:30:48;;;;;;;10.25;6.20;;;15.30;99.90;;;;;;5099328;28;20044;-45
2022/07/12 04:33:14;;;;;;;12.02;5.72;;;15.30;99.90;;;;;;5072837;28;20411;-41
2022/07/12 04:35:40;;;;;;;8.40;5.88;;;15.30;99.90;;;;;;5065865;28;20054;-41
2022/07/12 04:38:07;;;;;;;8.88;5.50;;;15.30;99.90;;;;;;5057882;28;20047;-41
2022/07/12 04:40:33;;;;;;;12.80;5.82;;;15.30;99.90;;;;;;5086949;28;20047;-41
2022/07/12 04:42:59;;;;;;;10.70;5.82;;;15.30;99.90;;;;;;5080859;28;20469;-41
2022/07/12 04:45:25;;;;;;;14.93;6.35;;;15.30;99.90;;;;;;5080134;28;20051;-41
2022/07/12 04:47:50;;;;;;;6.30;5.70;;;15.30;99.90;;;;;;5062344;28;20040;-42
2022/07/12 04:50:16;;;;;;;8.90;6.03;;;15.30;99.90;;;;;;5080070;28;20135;-41
2022/07/12 04:52:42;;;;;;;6.50;5.70;;;15.30;99.90;;;;;;5070590;28;20119;-42
2022/07/12 04:55:08;;;;;;;7.40;6.18;;;15.30;99.90;;;;;;5070713;28;20043;-41
2022/07/12 04:57:34;;;;;;;6.10;5.50;;;15.30;99.90;;;;;;5054416;28;20064;-42
2022/07/12 04:59:59;;;;;;;22.75;6.28;;;15.40;99.90;;;;;;5084001;28;20083;-41
2022/07/12 05:02:26;;;;;;;10.23;5.63;;;15.30;99.90;;;;;;5077858;28;20036;-41
2022/07/12 05:04:52;;;;;;;11.13;5.43;;;15.40;99.90;;;;;;5082932;28;20041;-41
2022/07/12 05:07:18;;;;;;;8.32;4.63;;;15.30;99.90;;;;;;5063524;28;20121;-41
2022/07/12 05:09:43;;;;;;;5.38;4.45;;;15.30;99.90;;;;;;5081700;28;20055;-41
2022/07/12 05:12:09;;;;;;;5.03;4.50;;;15.30;99.90;;;;;;5080004;28;20581;-42
2022/07/12 05:14:35;;;;;;;6.07;4.85;;;15.30;99.90;;;;;;5078018;28;20036;-41
2022/07/12 05:17:00;;;;;;;5.97;4.90;;;15.40;99.90;;;;;;5056255;28;20758;-42
2022/07/12 05:19:26;;;;;;;9.65;5.40;;;15.40;99.90;;;;;;5070851;28;20048;-41
2022/07/12 05:21:52;;;;;;;6.35;5.35;;;15.40;99.90;;;;;;5076847;28;20457;-41
2022/07/12 05:24:17;;;;;;;5.85;5.00;;;15.40;99.90;;;;;;5070765;28;20048;-41
2022/07/12 05:26:43;;;;;;;5.40;4.88;;;15.40;99.90;;;;;;5055535;28;20043;-42
2022/07/12 05:29:09;;;;;;;5.22;4.57;;;15.40;99.90;;;;;;5070794;28;20055;-41
2022/07/12 05:31:35;;;;;;;5.60;5.00;;;15.40;99.90;;;;;;5071249;28;20036;-41
2022/07/12 05:34:01;;;;;;;7.35;5.00;;;15.50;99.90;;;;;;5070380;28;20585;-42
2022/07/12 05:36:27;;;;;;;7.22;4.90;;;15.50;99.90;;;;;;5057499;28;20049;-41
2022/07/12 05:38:53;;;;;;;5.28;4.60;;;15.50;99.90;;;;;;5069139;28;20097;-41
2022/07/12 05:41:18;;;;;;;7.38;4.72;;;15.50;99.90;;;;;;5087459;28;20040;-41
2022/07/12 05:43:44;;;;;;;5.15;4.65;;;15.50;99.90;;;;;;5084736;28;20052;-41
2022/07/12 05:46:10;;;;;;;6.85;5.13;;;15.50;99.90;;;;;;5065296;28;20120;-42
2022/07/12 05:48:37;;;;;;;6.32;4.75;;;15.50;99.90;;;;;;5062595;28;20471;-42
2022/07/12 05:53:47;;;;;;;6.30;5.05;;;15.50;99.90;;;;;;5070479;28;20051;-41
2022/07/12 05:56:13;;;;;;;6.00;5.15;;;15.60;99.90;;;;;;5061474;28;20742;-42
2022/07/12 05:58:40;;;;;;;7.88;5.28;;;15.60;99.90;;;;;;5065208;28;20123;-41
2022/07/12 06:01:06;;;;;;;7.03;5.65;;;15.70;99.90;;;;;;5082696;28;20542;-40
2022/07/12 06:03:32;;;;;;;8.52;6.30;;;15.70;99.90;;;;;;5070119;28;20040;-41
2022/07/12 06:05:59;;;;;;;6.80;6.07;;;15.70;99.90;;;;;;5071055;28;20056;-41
2022/07/12 06:08:24;;;;;;;7.25;6.35;;;15.80;99.90;;;;;;5054153;28;20403;-41
2022/07/12 06:10:50;;;;;;;7.70;6.65;;;15.70;99.90;;;;;;5069524;28;20052;-41
2022/07/12 06:13:16;;;;;;;8.15;6.90;;;15.70;99.90;;;;;;5074943;28;20060;-41
2022/07/12 06:15:41;;;;;;;8.52;6.28;;;15.80;99.90;;;;;;5075174;28;20048;-41
2022/07/12 06:18:07;;;;;;;8.25;6.55;;;15.90;99.90;;;;;;5052432;28;20396;-42
2022/07/12 06:20:33;;;;;;;7.25;6.15;;;15.90;99.90;;;;;;5069181;28;20279;-41
2022/07/12 06:22:59;;;;;;;6.95;6.18;;;15.90;99.90;;;;;;5069867;28;20125;-41
2022/07/12 06:25:25;;;;;;;6.45;5.78;;;16.00;99.90;;;;;;5060233;28;20051;-41
2022/07/12 06:27:50;;;;;;;5.63;5.03;;;16.00;99.90;;;;;;5053816;28;20094;-41
2022/07/12 06:30:17;;;;;;;5.65;5.10;;;16.00;99.90;;;;;;5070868;28;20040;-41
2022/07/12 06:32:49;;;;;;;6.70;5.55;;;16.00;99.90;;;;;;5069417;28;20051;-41
2022/07/12 06:35:15;;;;;;;7.25;4.75;;;16.10;99.90;;;;;;5070713;28;20419;-41
2022/07/12 06:37:42;;;;;;;5.65;4.40;;;16.10;99.90;;;;;;5053809;28;20044;-41
2022/07/12 06:40:08;;;;;;;5.90;4.25;;;16.20;99.90;;;;;;5070564;28;20060;-41
2022/07/12 06:42:35;;;;;;;6.00;4.30;;;16.20;99.90;;;;;;5084605;28;20064;-41
2022/07/12 06:45:01;;;;;;;7.00;4.80;;;16.30;99.90;;;;;;5069894;28;20098;-41
2022/07/12 06:47:27;;;;;;;5.13;4.28;;;16.40;99.90;;;;;;5053981;28;20053;-42
2022/07/12 06:49:52;;;;;;;6.00;4.63;;;16.40;99.90;;;;;;5070338;28;20040;-41
2022/07/12 06:52:18;;;;;;;4.88;4.38;;;16.50;99.90;;;;;;5069191;28;20037;-42
2022/07/12 06:54:44;;;;;;;4.18;3.78;;;16.60;99.90;;;;;;5070362;28;20069;-41
2022/07/12 06:57:10;;;;;;;4.32;3.92;;;16.70;99.90;;;;;;5053661;28;20051;-41
2022/07/12 06:59:36;;;;;;;4.88;3.90;;;16.90;99.90;;;;;;5070181;28;20376;-41
2022/07/12 07:02:02;;;;;;;4.03;3.63;;;17.00;99.90;;;;;;5069848;28;20072;-41
2022/07/12 07:04:28;;;;;;;4.45;3.70;;;17.20;99.90;;;;;;5068935;28;20076;-41
2022/07/12 07:06:53;;;;;;;3.58;3.28;;;17.30;99.90;;;;;;5057273;28;20083;-41
2022/07/12 07:09:19;;;;;;;4.03;3.42;;;17.50;99.90;;;;;;5079553;28;20128;-42
2022/07/12 07:11:44;;;;;;;3.47;3.17;;;17.60;99.90;;;;;;5070279;28;20044;-41
2022/07/12 07:14:10;;;;;;;4.47;3.08;;;17.70;99.90;;;;;;5069202;28;20131;-41
2022/07/12 07:16:36;;;;;;;4.82;3.05;;;17.80;99.90;;;;;;5055294;28;20691;-42
2022/07/12 07:19:03;;;;;;;3.95;3.00;;;17.90;99.90;;;;;;5071064;28;20078;-41
2022/07/12 07:21:29;;;;;;;4.07;2.83;;;18.00;99.90;;;;;;5089873;28;20048;-41
2022/07/12 07:23:55;;;;;;;2.88;2.67;;;18.00;99.90;;;;;;5076475;28;20127;-41
2022/07/12 07:26:21;;;;;;;3.65;2.88;;;18.20;99.90;;;;;;5059472;28;20502;-41
2022/07/12 07:31:37;;;;;;;2.67;2.47;;;18.40;99.90;;;;;;5090155;28;20059;-41
2022/07/12 07:34:03;;;;;;;2.60;2.40;;;18.60;99.90;;;;;;5089129;28;20063;-41
2022/07/12 07:36:29;;;;;;;4.07;2.58;;;18.60;99.90;;;;;;5077290;28;20040;-41
2022/07/12 07:38:55;;;;;;;2.97;2.30;;;18.70;99.90;;;;;;5070884;28;20100;-41
2022/07/12 07:41:21;;;;;;;2.40;1.95;;;18.80;99.90;;;;;;5070142;28;20291;-41
2022/07/12 07:43:46;;;;;;;2.55;2.35;;;18.90;99.90;;;;;;5068818;28;20422;-41
2022/07/12 07:46:12;;;;;;;2.83;2.00;;;19.00;99.90;;;;;;5065750;28;20043;-41
2022/07/12 07:48:38;;;;;;;3.33;2.20;;;19.10;99.90;;;;;;5071628;28;20164;-41
2022/07/12 07:51:04;;;;;;;2.80;2.10;;;19.20;99.90;;;;;;5069638;28;20041;-41
2022/07/12 07:53:29;;;;;;;2.65;2.10;;;19.30;99.90;;;;;;5068592;28;20041;-41
2022/07/12 07:55:55;;;;;;;2.00;1.80;;;19.40;99.90;;;;;;5084384;28;20051;-41
2022/07/12 07:58:21;;;;;;;2.20;2.00;;;19.50;99.90;;;;;;5056860;28;20188;-41
2022/07/12 08:00:49;;;;;;;4.07;2.45;;;19.60;99.90;;;;;;5083622;28;20127;-41
2022/07/12 08:03:15;;;;;;;2.42;2.22;;;19.60;99.90;;;;;;5072546;28;20138;-41
2022/07/12 08:05:40;;;;;;;2.35;2.00;;;19.70;99.90;;;;;;5071393;28;20151;-41
2022/07/12 08:08:06;;;;;;;2.65;1.98;;;19.80;99.90;;;;;;5068782;28;20077;-41
2022/07/12 08:10:32;;;;;;;4.65;2.10;;;19.90;99.90;;;;;;5093177;28;20059;-41
2022/07/12 08:12:57;;;;;;;3.92;2.00;;;19.90;99.90;;;;;;5092889;28;20051;-41
2022/07/12 08:15:23;;;;;;;3.35;1.95;;;20.00;99.90;;;;;;5081856;28;20098;-41
2022/07/12 08:17:49;;;;;;;2.17;1.67;;;20.00;99.90;;;;;;5056303;28;20037;-41
2022/07/12 08:20:14;;;;;;;5.25;2.10;;;20.10;99.90;;;;;;5080796;28;20036;-41
2022/07/12 08:22:47;;;;;;;3.70;2.10;;;20.20;99.90;;;;;;5081125;28;20093;-41
2022/07/12 08:25:13;;;;;;;2.85;1.98;;;20.20;99.90;;;;;;5059471;28;20123;-41
2022/07/12 08:27:39;;;;;;;2.88;1.98;;;20.20;99.90;;;;;;5056525;28;20040;-42
2022/07/12 08:30:06;;;;;;;2.00;1.80;;;20.30;99.90;;;;;;5072708;28;20126;-42
2022/07/12 08:32:32;;;;;;;3.47;2.10;;;20.30;99.90;;;;;;5071777;28;20042;-41
2022/07/12 08:34:57;;;;;;;1.70;1.58;;;20.40;99.90;;;;;;5072883;28;20494;-41
2022/07/12 08:37:23;;;;;;;2.15;1.95;;;20.40;99.90;;;;;;5056891;28;20119;-41
2022/07/12 08:39:49;;;;;;;3.20;2.10;;;20.40;99.90;;;;;;5072665;28;20048;-41
2022/07/12 08:42:16;;;;;;;3.22;1.70;;;20.50;99.90;;;;;;5070159;28;20049;-42
2022/07/12 08:44:43;;;;;;;2.53;2.15;;;20.50;99.90;;;;;;5072697;28;20487;-41
2022/07/12 08:47:09;;;;;;;2.63;2.05;;;20.50;99.90;;;;;;5054924;28;20056;-42
2022/07/12 08:49:38;;;;;;;1.70;1.60;;;20.50;99.90;;;;;;5083682;28;20037;-41
2022/07/12 08:52:27;;;;;;;3.17;2.05;;;20.60;99.90;;;;;;5070529;28;20050;-41
2022/07/12 08:54:53;;;;;;;2.40;2.00;;;20.70;99.90;;;;;;5070153;28;20052;-41
2022/07/12 08:57:30;;;;;;;2.45;2.20;;;20.70;99.90;;;;;;5054990;28;20041;-41
2022/07/12 09:00:00;;;;;;;2.60;2.10;;;20.80;99.90;;;;;;5082219;28;20048;-41
2022/07/12 09:02:29;;;;;;;2.78;2.03;;;20.80;99.90;;;;;;5071909;28;20045;-41
2022/07/12 09:05:07;;;;;;;2.60;2.10;;;20.80;99.90;;;;;;5072344;28;20124;-41
2022/07/12 09:07:37;;;;;;;4.00;2.22;;;20.90;99.90;;;;;;5062887;28;20032;-42
2022/07/12 09:10:08;;;;;;;3.13;2.40;;;20.90;99.90;;;;;;5090789;28;20052;-41
2022/07/12 09:12:35;;;;;;;2.75;2.25;;;20.90;99.90;;;;;;5091473;28;20041;-41
2022/07/12 09:15:15;;;;;;;2.40;2.20;;;21.00;99.90;;;;;;5085748;28;20044;-41
2022/07/12 09:18:17;;;;;;;3.80;2.37;;;21.10;99.90;;;;;;5055262;28;20041;-41
2022/07/12 09:20:49;;;;;;;;;;;21.20;99.90;;;;;;5077744;28;20266;-41
2022/07/12 09:23:15;;;;;;;;;;;21.20;99.90;;;;;;5074503;28;20330;-41
2022/07/12 09:25:44;;;;;;;;;;;21.30;99.90;;;;;;5063434;28;19928;-41
2022/07/12 09:28:10;;;;;;;;;;;21.30;99.90;;;;;;5060783;28;19977;-42
2022/07/12 09:30:37;;;;;;;;;;;21.30;99.90;;;;;;5092625;28;19927;-41
2022/07/12 09:36:06;;;;;;;;;;;21.40;99.90;;;;;;5092231;28;20023;-41
2022/07/12 09:38:39;;;;;;;;;;;21.50;99.90;;;;;;5067973;28;19920;-41
2022/07/12 09:41:05;;;;;;;;;;;21.50;99.90;;;;;;5071555;28;20271;-41
2022/07/12 09:43:31;;;;;;;;;;;21.60;99.90;;;;;;5070886;28;19925;-41
2022/07/12 09:45:57;;;;;;;;;;;21.60;99.90;;;;;;5071104;28;19930;-42
2022/07/12 09:48:23;;;;;;;;;;;21.70;99.90;;;;;;5055201;28;19920;-41
2022/07/12 09:50:49;;;;;;;;;;;21.70;99.90;;;;;;5088524;28;19924;-41
2022/07/12 09:53:22;;;;;;;;;;;21.80;99.90;;;;;;5080924;28;19932;-41
2022/07/12 09:55:49;;;;;;;;;;;21.80;99.90;;;;;;5071548;28;19927;-41
2022/07/12 09:58:16;;;;;;;;;;;21.90;99.90;;;;;;5064203;28;20007;-42
2022/07/12 10:00:43;;;;;;;;;;;21.90;99.90;;;;;;5074169;28;19920;-41
2022/07/12 10:03:08;;;;;;;;;;;22.00;99.90;;;;;;5070382;28;19920;-42
2022/07/12 10:05:37;;;;;;;;;;;22.10;99.90;;;;;;5087062;28;19968;-41
2022/07/12 10:08:03;;;;;;;;;;;22.10;99.90;;;;;;5066989;28;19920;-41
2022/07/12 10:10:29;;;;;;;;;;;22.20;99.90;;;;;;5091573;28;19920;-41
2022/07/12 10:12:55;;;;;;;;;;;22.20;99.90;;;;;;5090017;28;19989;-41
2022/07/12 10:15:22;;;;;;;;;;;22.30;99.90;;;;;;5081585;28;20035;-42
2022/07/12 10:17:53;;;;;;;;;;;22.40;99.90;;;;;;5054462;28;19920;-41
2022/07/12 10:20:23;;;;;;;;;;;22.50;99.90;;;;;;5071022;28;20339;-41
2022/07/12 10:22:49;;;;;;;;;;;22.60;99.90;;;;;;5089548;28;19931;-41
2022/07/12 10:25:33;;;;;;;;;;;22.60;99.90;;;;;;5070743;28;19920;-41
2022/07/12 10:28:00;;;;;;;;;;;22.60;99.90;;;;;;5054844;28;19995;-41
2022/07/12 10:30:26;;;;;;;;;;;22.70;99.90;;;;;;5071316;28;19922;-41
2022/07/12 10:32:57;;;;;;;;;;;22.70;99.90;;;;;;5070210;28;20003;-41
2022/07/12 10:35:24;;;;;;;;;;;22.80;99.90;;;;;;5082190;28;19920;-41
2022/07/12 10:38:07;;;;;;;;;;;22.90;99.90;;;;;;5067800;28;19916;-42
2022/07/12 10:40:34;;;;;;;;;;;22.90;99.90;;;;;;5070698;28;19920;-41
2022/07/12 10:43:06;;;;;;;;;;;23.00;99.90;;;;;;5069930;28;19920;-41
2022/07/12 10:45:32;;;;;;;;;;;23.00;99.90;;;;;;5070612;28;20035;-41
2022/07/12 10:47:59;;;;;;;;;;;23.10;99.90;;;;;;5060103;28;20310;-41
2022/07/12 10:50:48;;;;;;;;;;;23.10;99.90;;;;;;5090940;28;19999;-41
2022/07/12 10:53:25;;;;;;;;;;;23.20;99.90;;;;;;5090305;28;19923;-41
2022/07/12 10:56:03;;;;;;;;;;;23.30;99.90;;;;;;5068059;28;19924;-41
2022/07/12 10:58:32;;;;;;;;;;;23.30;99.90;;;;;;5066503;28;19930;-41
2022/07/12 11:00:59;;;;;;;;;;;23.40;99.90;;;;;;5077840;28;19920;-41
2022/07/12 11:03:30;;;;;;;;;;;23.40;99.90;;;;;;5090119;28;19920;-41
2022/07/12 11:06:05;;;;;;;;;;;23.40;99.90;;;;;;5091135;28;19920;-41
2022/07/12 11:08:31;;;;;;;;;;;23.50;99.90;;;;;;5058349;28;19928;-41
2022/07/12 11:10:57;;;;;;;;;;;23.50;99.90;;;;;;5070909;28;20279;-41
2022/07/12 11:13:24;;;;;;;;;;;23.60;99.90;;;;;;5069783;28;19916;-41
2022/07/12 11:15:59;;;;;;;;;;;23.70;99.90;;;;;;5078739;28;20370;-41
2022/07/12 11:18:32;;;;;;;;;;;23.70;99.90;;;;;;5074106;28;19954;-41
2022/07/12 11:20:58;;;;;;;;;;;23.70;99.90;;;;;;5090758;28;19942;-41
2022/07/12 11:23:27;;;;;;;;;;;23.80;99.90;;;;;;5100982;28;19924;-41
2022/07/12 11:25:56;;;;;;;;;;;23.80;99.90;;;;;;5095276;28;19920;-41
2022/07/12 11:28:23;;;;;;;;;;;23.80;99.90;;;;;;5074214;28;19920;-41
2022/07/12 11:30:52;;;;;;;;;;;24.00;99.90;;;;;;5091850;28;19920;-41
2022/07/12 11:33:24;;;;;;;;;;;24.10;99.90;;;;;;5094013;28;20015;-41
2022/07/12 11:35:50;;;;;;;;;;;24.10;99.90;;;;;;5088212;28;20002;-41
2022/07/12 11:38:23;;;;;;;;;;;24.20;99.90;;;;;;5058921;28;19929;-41
2022/07/12 11:40:53;;;;;;;;;;;24.30;99.90;;;;;;5071173;28;20356;-41
2022/07/12 11:43:20;;;;;;;;;;;24.30;99.90;;;;;;5073595;28;19920;-41
2022/07/12 11:45:46;;;;;;;;;;;24.40;99.90;;;;;;5073990;28;20272;-41
2022/07/12 11:48:11;;;;;;;;;;;24.40;99.90;;;;;;5057145;28;19924;-41
2022/07/12 11:50:37;;;;;;;;;;;24.50;99.90;;;;;;5073921;28;20037;-41
2022/07/12 11:53:03;;;;;;;;;;;24.60;99.90;;;;;;5073266;28;19920;-41
2022/07/12 11:55:29;;;;;;;;;;;24.60;99.90;;;;;;5073619;28;19920;-41
2022/07/12 11:58:05;;;;;;;;;;;24.70;99.90;;;;;;5057592;28;19920;-41
2022/07/12 12:00:31;;;;;;;;;;;24.80;99.90;;;;;;5083567;28;20019;-41
2022/07/12 12:02:57;;;;;;;;;;;24.80;99.90;;;;;;5073295;28;19976;-41
2022/07/12 12:05:23;;;;;;;;;;;25.00;99.90;;;;;;5073381;28;19967;-42
2022/07/12 12:07:48;;;;;;;;;;;25.10;99.90;;;;;;5057211;28;19985;-41
2022/07/12 12:10:15;;;;;;;;;;;25.10;99.90;;;;;;5072211;28;20018;-41
2022/07/12 12:12:45;;;;;;;;;;;25.20;99.90;;;;;;5072974;28;19935;-41
2022/07/12 12:15:16;;;;;;;;;;;25.30;99.90;;;;;;5076425;28;19963;-41
2022/07/12 12:17:50;;;;;;;;;;;25.40;99.90;;;;;;5077350;28;19931;-41
2022/07/12 12:20:19;;;;;;;;;;;25.50;99.90;;;;;;5093126;28;20426;-41
2022/07/12 12:22:46;;;;;;;;;;;25.60;99.90;;;;;;5079906;28;20394;-42
2022/07/12 12:25:15;;;;;;;;;;;25.60;99.90;;;;;;5075812;28;20379;-41
2022/07/12 12:27:41;;;;;;;;;;;25.70;99.90;;;;;;5057263;28;19924;-41
2022/07/12 12:30:07;;;;;;;;;;;25.70;99.90;;;;;;5093698;28;20041;-41
2022/07/12 12:32:43;;;;;;;;;;;25.80;99.90;;;;;;5092802;28;20291;-41
2022/07/12 12:35:09;;;;;;;;;;;25.80;99.90;;;;;;5093066;28;19920;-41
2022/07/12 12:37:35;;;;;;;;;;;25.90;99.90;;;;;;5057525;28;19923;-42
2022/07/12 12:40:01;;;;;;;;;;;26.00;99.90;;;;;;5082324;28;19924;-42
2022/07/12 12:42:26;;;;;;;;;;;26.00;99.90;;;;;;5080894;28;19928;-41
2022/07/12 12:44:52;;;;;;;;;;;26.00;99.90;;;;;;5098705;28;19974;-41
2022/07/12 12:47:34;;;;;;;;;;;26.10;99.90;;;;;;5069542;28;19920;-42
2022/07/12 12:50:02;;;;;;;;;;;26.20;99.90;;;;;;5072965;28;20402;-41
2022/07/12 12:52:28;;;;;;;;;;;26.30;99.90;;;;;;5075370;28;19927;-41
2022/07/12 12:54:54;;;;;;;;;;;26.30;99.90;;;;;;5092830;28;19928;-41
2022/07/12 12:57:20;;;;;;;;;;;26.40;99.90;;;;;;5061108;28;20136;-41
2022/07/12 12:59:46;;;;;;;;;;;26.50;99.90;;;;;;5079676;28;19930;-41
2022/07/12 13:02:11;;;;;;;;;;;26.60;99.90;;;;;;5074999;28;19960;-42
2022/07/12 13:04:37;;;;;;;;;;;26.70;99.90;;;;;;5072867;28;19920;-41
2022/07/12 13:07:05;;;;;;;;;;;26.80;99.90;;;;;;5060704;28;19927;-41
2022/07/12 13:09:31;;;;;;;;;;;27.00;99.90;;;;;;5091852;28;19927;-41
2022/07/12 13:11:58;;;;;;;;;;;27.00;99.90;;;;;;5086213;28;20406;-41
2022/07/12 13:14:24;;;;;;;;;;;27.00;99.90;;;;;;5071489;28;19920;-41
2022/07/12 13:16:49;;;;;;;;;;;27.00;99.90;;;;;;5074325;28;19920;-42
2022/07/12 13:19:15;;;;;;;;;;;27.00;99.90;;;;;;5091835;28;19931;-41
2022/07/12 13:21:40;;;;;;;;;;;27.00;99.90;;;;;;5092173;28;19928;-41
2022/07/12 13:24:06;;;;;;;;;;;27.00;99.90;;;;;;5090046;28;19923;-41